KGPT/GPT METAR and TAF weather

Enter ICAO airport designator
Station Type Date Time Source
KGPT METAR 2022/08/16 19:53 UTC NOAA

KGPT 161953Z 29010KT 10SM FEW085 36/24 A2991 RMK AO2 SLP126 T03560239


Station Type Date Time Source
KGPT Decoded METAR 2022/08/16 19:53 UTC NOAA

GULFPORT-BILOXI REG AIRPORT , MS, United States (KGPT) 30-25N 089-05W 14M
Aug 16, 2022 - 03:53 PM EDT / 2022.08.16 1953 UTC
Wind: from the WNW (290 degrees) at 12 MPH (10 KT):0
Visibility: 10 mile(s):0
Sky conditions: mostly clear
Temperature: 96.1 F (35.6 C)
Heat index: 108.7 F (42.6 C):1
Dew Point: 75.0 F (23.9 C)
Relative Humidity: 51%
Pressure (altimeter): 29.91 in. Hg (1012 hPa)
ob: KGPT 161953Z 29010KT 10SM FEW085 36/24 A2991 RMK AO2 SLP126 T03560239
cycle: 20

Station Type Date Time Source
KGPT TAF 2022/08/16 18:40 UTC NOAA

TAF KGPT 161738Z 1618/1718 29009KT P6SM SCT040
FM162200 27008KT P6SM VCTS SCT035CB SCT090 BKN110
FM170400 31006KT P6SM SCT090 BKN250
FM171500 29008KT P6SM SCT120

Example: see airport list